CheckWX is a tool to help pilots better visualize weather data.  It is not intended as a substitute for an official pre-flight weather briefing.

04:54:32 UTC

KTTN METAR
Trenton Mercer Airport
Trenton, New Jersey, USA
Current

1 hour ago

KTTN 260353Z AUTO 06004KT 10SM CLR 17/14 A3022 RMK AO2 SLP226 T01670144
Observed
Aug-26 @ 03:53 UTC
Wind
  • 060° at 4 KTS
Visibility
10 SM
Flight Rules
VFR
Cloud Levels
  • Clear skies
Temperature
17°C / 63°F
Dewpoint
14°C / 57°F
Humidity
83%
Altimeter
30.22" Hg
Pressure
1023.42 hPa
Previous

2 hours ago

KTTN 260253Z AUTO 00000KT 10SM CLR 18/14 A3022 RMK AO2 SLP226 T01780144 51004
Observed
Aug-26 @ 02:53 UTC
Visibility
10 SM
Flight Rules
VFR
Cloud Levels
  • Clear skies
Temperature
18°C / 64°F
Dewpoint
14°C / 57°F
Humidity
78%
Altimeter
30.22" Hg
Pressure
1023.42 hPa
Previous

3 hours ago

KTTN 260153Z 09004KT 10SM CLR 18/14 A3022 RMK AO2 SLP225 T01780144
Observed
Aug-26 @ 01:53 UTC
Wind
  • 090° at 4 KTS
Visibility
10 SM
Flight Rules
VFR
Cloud Levels
  • Clear skies
Temperature
18°C / 64°F
Dewpoint
14°C / 57°F
Humidity
78%
Altimeter
30.22" Hg
Pressure
1023.42 hPa